createdAt,value
2019-01-30T00:01:24.200Z,89.22
2019-01-30T00:03:52.646Z,89.16
2019-01-30T00:06:21.140Z,89.75
2019-01-30T00:08:49.563Z,90.01
2019-01-30T00:13:51.625Z,89.80
2019-01-30T00:16:20.046Z,89.33
2019-01-30T00:18:48.540Z,89.44
2019-01-30T00:21:56.882Z,89.81
2019-01-30T00:24:25.331Z,89.52
2019-01-30T00:26:53.753Z,90.18
2019-01-30T00:29:22.186Z,90.17
2019-01-30T00:34:24.605Z,90.46
2019-01-30T00:37:12.374Z,90.39
2019-01-30T00:42:28.255Z,90.19
2019-01-30T00:44:56.674Z,90.07
2019-01-30T00:47:25.096Z,89.25
2019-01-30T00:49:53.622Z,89.12
2019-01-30T00:52:41.362Z,89.17
2019-01-30T00:55:49.763Z,88.76
2019-01-30T00:58:37.507Z,89.40
2019-01-30T01:01:46.064Z,88.54
2019-01-30T01:04:33.676Z,88.80
2019-01-30T01:07:02.122Z,88.32
2019-01-30T01:09:49.874Z,87.81
2019-01-30T01:14:52.598Z,87.83
2019-01-30T01:20:48.508Z,87.26
2019-01-30T01:23:36.122Z,87.25
2019-01-30T01:26:04.633Z,87.00
2019-01-30T01:28:52.302Z,86.62
2019-01-30T01:31:39.973Z,86.91
2019-01-30T01:34:08.396Z,87.14
2019-01-30T01:36:36.831Z,86.94
2019-01-30T01:39:45.535Z,87.17
2019-01-30T01:42:13.955Z,87.10
2019-01-30T01:44:42.391Z,86.81
2019-01-30T01:50:44.356Z,86.87
2019-01-30T01:53:32.275Z,86.78
2019-01-30T01:56:00.761Z,86.76
2019-01-30T01:58:29.184Z,87.25
2019-01-30T02:01:16.955Z,87.98
2019-01-30T02:03:45.380Z,87.82
2019-01-30T02:06:32.956Z,88.12
2019-01-30T02:09:01.374Z,87.65
2019-01-30T02:11:29.796Z,87.27
2019-01-30T02:16:51.971Z,89.55
2019-01-30T02:19:20.419Z,90.45
2019-01-30T02:21:48.849Z,90.93
2019-01-30T02:24:17.340Z,90.88
2019-01-30T02:29:19.995Z,90.39
2019-01-30T02:34:22.817Z,89.79
2019-01-30T02:37:10.464Z,89.73
2019-01-30T02:39:38.889Z,89.67
2019-01-30T02:42:07.312Z,89.60
2019-01-30T02:44:35.771Z,89.58
2019-01-30T02:47:23.519Z,89.16
2019-01-30T02:52:26.488Z,89.10
2019-01-30T02:54:54.947Z,88.69
2019-01-30T02:57:23.375Z,88.79
2019-01-30T02:59:51.795Z,89.81
2019-01-30T03:04:55.354Z,90.36
2019-01-30T03:07:23.781Z,91.07
2019-01-30T03:09:52.204Z,90.77
2019-01-30T03:12:20.663Z,91.07
2019-01-30T03:14:49.088Z,90.61
2019-01-30T03:17:17.509Z,90.72
2019-01-30T03:22:20.534Z,90.81
2019-01-30T03:25:08.181Z,91.01
2019-01-30T03:27:36.601Z,90.68
2019-01-30T03:30:45.048Z,90.25
2019-01-30T03:33:13.474Z,90.37
2019-01-30T03:38:35.046Z,89.79
2019-01-30T03:41:03.539Z,89.18
2019-01-30T03:43:51.251Z,89.37
2019-01-30T03:46:38.923Z,89.23
2019-01-30T03:51:41.658Z,89.19
2019-01-30T03:56:44.140Z,89.02
2019-01-30T03:59:12.562Z,89.46
2019-01-30T04:02:00.293Z,88.78
2019-01-30T04:04:28.716Z,88.64
2019-01-30T04:06:57.141Z,88.49
2019-01-30T04:11:59.135Z,88.48
2019-01-30T04:14:27.564Z,88.52
2019-01-30T04:19:30.287Z,88.67
2019-01-30T04:24:32.852Z,87.67
2019-01-30T04:27:20.436Z,88.30
2019-01-30T04:29:48.853Z,88.00
2019-01-30T04:32:17.274Z,87.35
2019-01-30T04:37:19.310Z,86.00
2019-01-30T04:42:41.442Z,86.39
2019-01-30T04:45:49.831Z,86.29
2019-01-30T04:48:18.273Z,86.73
2019-01-30T04:50:48.416Z,87.12
2019-01-30T04:55:50.727Z,88.27
2019-01-30T04:58:38.690Z,89.06
2019-01-30T05:01:07.250Z,89.07
2019-01-30T05:03:35.698Z,89.05
2019-01-30T05:08:58.567Z,89.90
2019-01-30T05:11:46.181Z,90.16
2019-01-30T05:14:14.691Z,89.60
2019-01-30T05:17:02.435Z,89.77
2019-01-30T05:22:24.583Z,89.78
2019-01-30T05:25:12.372Z,89.53
2019-01-30T05:28:00.116Z,89.86
2019-01-30T05:31:08.815Z,90.22
2019-01-30T05:33:37.239Z,89.79
2019-01-30T05:36:05.731Z,89.24
2019-01-30T05:38:34.233Z,89.50
2019-01-30T05:41:02.658Z,89.47
2019-01-30T05:43:31.084Z,89.17
2019-01-30T05:45:59.532Z,88.90
2019-01-30T05:48:27.956Z,90.26
2019-01-30T05:50:56.454Z,91.12
2019-01-30T05:56:20.203Z,93.59
2019-01-30T06:03:57.011Z,97.86
2019-01-30T06:06:25.434Z,98.20
2019-01-30T06:08:53.864Z,98.41
2019-01-30T06:11:22.316Z,99.22
2019-01-30T06:13:50.746Z,100.00
2019-01-30T06:16:19.181Z,100.00
2019-01-30T06:18:47.641Z,100.00
2019-01-30T06:21:16.065Z,100.00
2019-01-30T06:23:44.498Z,100.00
2019-01-30T06:26:12.966Z,100.00
2019-01-30T06:28:41.415Z,100.00
2019-01-30T06:31:29.071Z,100.00
2019-01-30T06:34:16.822Z,100.00
2019-01-30T06:37:04.531Z,100.00
2019-01-30T06:39:52.276Z,100.00
2019-01-30T06:42:40.001Z,100.00
2019-01-30T06:48:22.669Z,100.00
2019-01-30T06:50:51.101Z,100.00
2019-01-30T06:53:19.536Z,100.00
2019-01-30T06:55:47.992Z,100.00
2019-01-30T06:58:16.430Z,100.00
2019-01-30T07:00:44.861Z,100.00
2019-01-30T07:03:32.526Z,100.00
2019-01-30T07:06:00.983Z,100.00
2019-01-30T07:08:48.642Z,100.00
2019-01-30T07:11:17.072Z,100.00
2019-01-30T07:13:45.514Z,100.00
2019-01-30T07:16:33.299Z,100.00
2019-01-30T07:19:01.728Z,100.00
2019-01-30T07:21:30.166Z,100.00
2019-01-30T07:23:58.639Z,100.00
2019-01-30T07:27:07.004Z,100.00
2019-01-30T07:32:28.282Z,100.00
2019-01-30T07:37:31.440Z,100.00
2019-01-30T07:39:59.897Z,100.00
2019-01-30T07:42:47.704Z,100.00
2019-01-30T07:45:56.076Z,100.00
2019-01-30T07:48:27.197Z,100.00
2019-01-30T07:50:54.657Z,100.00
2019-01-30T07:56:16.162Z,100.00
2019-01-30T07:58:44.592Z,100.00
2019-01-30T08:01:13.043Z,100.00
2019-01-30T08:03:41.477Z,100.00
2019-01-30T08:11:58.019Z,99.71
2019-01-30T08:14:26.444Z,99.97
2019-01-30T08:17:14.091Z,100.00
2019-01-30T08:20:01.801Z,100.00
2019-01-30T08:22:30.270Z,100.00
2019-01-30T08:24:58.811Z,100.00
2019-01-30T08:27:27.356Z,100.00
2019-01-30T08:29:57.515Z,100.00
2019-01-30T08:32:26.023Z,100.00
2019-01-30T08:38:07.547Z,100.00
2019-01-30T08:40:36.120Z,100.00
2019-01-30T08:43:44.474Z,100.00
2019-01-30T08:46:12.953Z,100.00
2019-01-30T08:48:41.383Z,100.00
2019-01-30T08:51:29.176Z,100.00
2019-01-30T08:53:57.613Z,100.00
2019-01-30T08:56:26.056Z,100.00
2019-01-30T08:59:13.817Z,100.00
2019-01-30T09:01:42.234Z,100.00
2019-01-30T09:04:11.385Z,100.00
2019-01-30T09:09:33.701Z,100.00
2019-01-30T09:12:21.491Z,100.00
2019-01-30T09:14:49.920Z,100.00
2019-01-30T09:17:18.348Z,100.00
2019-01-30T09:22:40.602Z,100.00
2019-01-30T09:25:49.055Z,100.00
2019-01-30T09:28:17.485Z,100.00
2019-01-30T09:30:45.940Z,100.00
2019-01-30T09:33:25.364Z,99.49
2019-01-30T09:35:44.565Z,99.29
2019-01-30T09:38:13.045Z,98.99
2019-01-30T09:41:00.938Z,98.59
2019-01-30T09:43:29.403Z,98.74
2019-01-30T09:45:57.792Z,98.38
2019-01-30T09:48:26.270Z,97.95
2019-01-30T09:50:54.663Z,97.63
2019-01-30T09:53:23.082Z,97.32
2019-01-30T09:58:25.582Z,96.86
2019-01-30T10:03:36.087Z,96.07
2019-01-30T10:06:38.805Z,96.11
2019-01-30T10:09:47.147Z,95.96
2019-01-30T10:12:15.643Z,94.91
2019-01-30T10:14:44.109Z,94.98
2019-01-30T10:22:54.419Z,93.57
2019-01-30T10:28:36.563Z,93.01
2019-01-30T10:31:24.309Z,92.62
2019-01-30T10:36:26.350Z,93.39
2019-01-30T10:38:54.842Z,92.68
2019-01-30T10:41:23.258Z,92.00
2019-01-30T10:43:51.682Z,92.69
2019-01-30T10:46:39.343Z,92.74
2019-01-30T10:49:26.954Z,92.61
2019-01-30T10:54:29.102Z,92.51
2019-01-30T10:56:57.588Z,92.26
2019-01-30T10:59:26.696Z,91.82
2019-01-30T11:01:56.183Z,91.54
2019-01-30T11:04:24.676Z,91.31
2019-01-30T11:10:05.774Z,91.56
2019-01-30T11:12:53.649Z,91.58
2019-01-30T11:16:01.983Z,91.59
2019-01-30T11:21:23.781Z,91.29
2019-01-30T11:24:11.551Z,91.03
2019-01-30T11:26:39.971Z,91.26
2019-01-30T11:29:08.389Z,90.80
2019-01-30T11:31:36.851Z,90.78
2019-01-30T11:34:24.591Z,90.61
2019-01-30T11:37:12.362Z,90.25
2019-01-30T11:39:40.782Z,90.77
2019-01-30T11:42:09.203Z,90.86
2019-01-30T11:44:37.663Z,90.52
2019-01-30T11:47:45.996Z,90.82
2019-01-30T11:50:54.362Z,91.10
2019-01-30T11:53:22.782Z,90.41
2019-01-30T11:56:10.548Z,90.48
2019-01-30T11:58:38.969Z,90.12
2019-01-30T12:01:26.785Z,90.65
2019-01-30T12:03:55.201Z,90.87
2019-01-30T12:06:42.983Z,90.89
2019-01-30T12:09:44.929Z,91.00
2019-01-30T12:12:01.004Z,92.03
2019-01-30T12:14:29.415Z,91.45
2019-01-30T12:17:17.202Z,91.54
2019-01-30T12:19:45.648Z,91.93
2019-01-30T12:22:33.389Z,91.79
2019-01-30T12:25:01.815Z,91.95
2019-01-30T12:27:30.232Z,92.67
2019-01-30T12:30:18.015Z,91.99
2019-01-30T12:33:05.638Z,91.97
2019-01-30T12:35:34.097Z,92.39
2019-01-30T12:38:02.519Z,92.20
2019-01-30T12:40:30.938Z,92.66
2019-01-30T12:45:53.071Z,92.50
2019-01-30T12:51:36.038Z,93.14
2019-01-30T12:54:23.130Z,93.38
2019-01-30T12:56:51.882Z,93.21
2019-01-30T12:59:20.328Z,92.75
2019-01-30T13:01:48.759Z,92.92
2019-01-30T13:04:17.257Z,92.85
2019-01-30T13:06:45.674Z,93.07
2019-01-30T13:09:14.155Z,93.12
2019-01-30T13:11:42.589Z,93.23
2019-01-30T13:14:11.006Z,93.15
2019-01-30T13:22:08.574Z,94.08
2019-01-30T13:24:56.185Z,95.01
2019-01-30T13:27:44.070Z,95.62
2019-01-30T13:30:52.434Z,95.74
2019-01-30T13:33:20.884Z,96.31
2019-01-30T13:35:56.728Z,96.22
2019-01-30T13:38:25.144Z,96.67
2019-01-30T13:41:12.785Z,96.36
2019-01-30T13:43:41.202Z,96.77
2019-01-30T13:46:28.894Z,97.49
2019-01-30T13:48:57.327Z,98.01
2019-01-30T13:51:25.755Z,97.82
2019-01-30T13:54:13.436Z,97.77
2019-01-30T13:56:41.840Z,98.29
2019-01-30T14:07:51.830Z,100.00
2019-01-30T14:15:48.745Z,100.00
2019-01-30T14:18:17.191Z,99.92
2019-01-30T14:20:45.597Z,99.99
2019-01-30T14:23:14.022Z,99.90
2019-01-30T14:28:16.895Z,99.34
2019-01-30T14:33:38.229Z,99.28
2019-01-30T14:36:25.774Z,99.02
2019-01-30T14:38:54.189Z,98.79
2019-01-30T14:41:22.745Z,99.33
2019-01-30T14:43:51.223Z,99.07
2019-01-30T14:46:19.656Z,98.61
2019-01-30T14:48:48.051Z,98.53
2019-01-30T14:51:16.538Z,97.57
2019-01-30T14:53:44.948Z,97.41
2019-01-30T14:56:13.358Z,96.70
2019-01-30T14:59:01.143Z,97.17
2019-01-30T15:01:29.562Z,97.86
2019-01-30T15:03:58.019Z,97.66
2019-01-30T15:09:00.067Z,98.54
2019-01-30T15:11:28.508Z,98.19
2019-01-30T15:13:56.950Z,98.19
2019-01-30T15:16:25.333Z,97.93
2019-01-30T15:18:53.801Z,97.38
2019-01-30T15:23:56.119Z,97.36
2019-01-30T15:26:24.539Z,97.77
2019-01-30T15:31:26.566Z,96.71
2019-01-30T15:33:55.018Z,97.07
2019-01-30T15:36:23.459Z,96.88
2019-01-30T15:38:51.878Z,96.36
2019-01-30T15:41:20.331Z,95.86
2019-01-30T15:43:48.753Z,95.44
2019-01-30T15:46:17.174Z,96.84
2019-01-30T15:48:45.620Z,97.36
2019-01-30T15:51:14.049Z,96.75
2019-01-30T15:53:42.473Z,96.55
2019-01-30T15:56:30.171Z,96.61
2019-01-30T15:58:58.594Z,97.15
2019-01-30T16:01:27.107Z,96.35
2019-01-30T16:04:17.659Z,97.09
2019-01-30T16:06:44.964Z,97.33
2019-01-30T16:09:13.458Z,96.98
2019-01-30T16:14:35.487Z,96.89
2019-01-30T16:19:58.202Z,96.72
2019-01-30T16:22:26.622Z,95.96
2019-01-30T16:24:55.043Z,95.47
2019-01-30T16:27:23.496Z,96.10
2019-01-30T16:29:51.927Z,95.95
2019-01-30T16:32:20.350Z,95.39
2019-01-30T16:34:48.814Z,95.12
2019-01-30T16:37:17.247Z,94.97
2019-01-30T16:39:45.656Z,95.57
2019-01-30T16:42:14.109Z,95.65
2019-01-30T16:44:42.525Z,95.96
2019-01-30T16:47:10.962Z,95.50
2019-01-30T16:49:39.392Z,94.41
2019-01-30T16:52:27.000Z,94.99
2019-01-30T16:54:55.454Z,95.74
2019-01-30T16:57:23.871Z,95.42
2019-01-30T16:59:52.295Z,95.69
2019-01-30T17:02:40.016Z,95.77
2019-01-30T17:05:48.360Z,95.25
2019-01-30T17:10:50.766Z,95.71
2019-01-30T17:13:19.184Z,96.04
2019-01-30T17:15:47.713Z,95.59
2019-01-30T17:18:56.052Z,96.63
2019-01-30T17:21:24.544Z,96.49
2019-01-30T17:23:52.967Z,97.38
2019-01-30T17:26:21.461Z,96.94
2019-01-30T17:31:43.605Z,97.08
2019-01-30T17:36:46.049Z,97.05
2019-01-30T17:44:43.015Z,98.68
2019-01-30T17:50:44.623Z,99.37
2019-01-30T17:55:47.627Z,99.46
2019-01-30T17:58:35.354Z,99.67
2019-01-30T18:01:43.694Z,100.00
2019-01-30T18:06:46.797Z,100.00
2019-01-30T18:09:15.223Z,100.00
2019-01-30T18:12:03.000Z,100.00
2019-01-30T18:14:31.426Z,100.00
2019-01-30T18:16:59.864Z,100.00
2019-01-30T18:19:28.324Z,100.00
2019-01-30T18:21:56.752Z,99.76
2019-01-30T18:24:25.170Z,98.67
2019-01-30T18:26:53.668Z,97.33
2019-01-30T18:29:22.096Z,97.23
2019-01-30T18:31:50.510Z,97.08
2019-01-30T18:37:12.266Z,97.20
2019-01-30T18:42:15.072Z,96.85
2019-01-30T18:44:43.529Z,96.47
2019-01-30T18:47:31.151Z,96.04
2019-01-30T18:49:59.596Z,95.62
2019-01-30T18:52:47.243Z,94.33
2019-01-30T18:55:55.662Z,94.37
2019-01-30T18:58:43.452Z,93.92
2019-01-30T19:01:31.175Z,93.33
2019-01-30T19:04:18.915Z,93.07
2019-01-30T19:07:06.601Z,92.85
2019-01-30T19:09:54.383Z,92.86
2019-01-30T19:12:42.126Z,92.56
2019-01-30T19:15:50.465Z,93.00
2019-01-30T19:18:38.310Z,92.83
2019-01-30T19:21:25.938Z,91.95
2019-01-30T19:24:13.731Z,92.06
2019-01-30T19:27:01.399Z,91.61
2019-01-30T19:32:42.410Z,91.68
2019-01-30T19:35:52.407Z,91.24
2019-01-30T19:38:40.428Z,91.26
2019-01-30T19:44:02.031Z,91.00
2019-01-30T19:46:49.789Z,91.03
2019-01-30T19:52:44.153Z,91.13
2019-01-30T19:55:31.941Z,90.95
2019-01-30T20:01:14.172Z,89.85
2019-01-30T20:03:42.819Z,89.62
2019-01-30T20:06:51.215Z,88.66
2019-01-30T20:09:38.922Z,88.46
2019-01-30T20:12:26.705Z,89.60
2019-01-30T20:18:07.481Z,88.21
2019-01-30T20:21:15.904Z,88.55
2019-01-30T20:24:03.692Z,88.17
2019-01-30T20:26:51.406Z,88.30
2019-01-30T20:29:39.195Z,88.68
2019-01-30T20:32:07.797Z,89.33
2019-01-30T20:34:55.525Z,88.31
2019-01-30T20:40:36.439Z,88.46
2019-01-30T20:43:44.871Z,87.96
2019-01-30T20:46:32.589Z,88.54
2019-01-30T20:49:20.459Z,89.02
2019-01-30T20:55:15.036Z,88.45
2019-01-30T20:57:43.619Z,88.59
2019-01-30T21:00:52.027Z,89.18
2019-01-30T21:03:39.799Z,88.81
2019-01-30T21:09:01.450Z,88.40
2019-01-30T21:11:29.925Z,88.06
2019-01-30T21:13:58.376Z,88.27
2019-01-30T21:16:46.169Z,89.16
2019-01-30T21:19:14.619Z,89.80
2019-01-30T21:21:43.061Z,90.01
2019-01-30T21:24:30.772Z,89.22
2019-01-30T21:26:59.199Z,90.06
2019-01-30T21:29:27.622Z,89.70
2019-01-30T21:31:56.115Z,89.65
2019-01-30T21:34:24.542Z,89.40
2019-01-30T21:36:52.962Z,89.19
2019-01-30T21:39:21.426Z,89.76
2019-01-30T21:41:49.848Z,89.04
2019-01-30T21:44:37.422Z,88.91
2019-01-30T21:47:05.849Z,88.81
2019-01-30T21:49:53.486Z,88.68
2019-01-30T21:52:21.907Z,89.35
2019-01-30T21:54:50.442Z,88.98
2019-01-30T21:57:18.855Z,88.84
2019-01-30T21:59:47.282Z,89.29
2019-01-30T22:02:28.242Z,89.53
2019-01-30T22:04:56.680Z,89.91
2019-01-30T22:07:25.099Z,89.47
2019-01-30T22:09:53.564Z,89.78
2019-01-30T22:12:21.982Z,89.66
2019-01-30T22:15:09.636Z,89.97
2019-01-30T22:17:38.054Z,90.22
2019-01-30T22:20:46.421Z,90.32
2019-01-30T22:23:14.845Z,90.08
2019-01-30T22:25:43.258Z,90.48
2019-01-30T22:28:30.895Z,90.58
2019-01-30T22:30:59.318Z,90.65
2019-01-30T22:33:27.739Z,91.01
2019-01-30T22:35:56.190Z,91.19
2019-01-30T22:38:24.609Z,91.05
2019-01-30T22:40:53.026Z,91.72
2019-01-30T22:43:21.469Z,91.33
2019-01-30T22:45:50.645Z,91.67
2019-01-30T22:48:20.028Z,91.67
2019-01-30T22:50:48.475Z,90.75
2019-01-30T22:53:16.895Z,91.35
2019-01-30T22:55:45.387Z,91.53
2019-01-30T22:58:13.906Z,91.73
2019-01-30T23:01:22.292Z,92.14
2019-01-30T23:04:30.660Z,92.74
2019-01-30T23:07:39.005Z,93.59
2019-01-30T23:10:46.043Z,93.35
2019-01-30T23:13:54.383Z,94.41
2019-01-30T23:17:01.427Z,95.45
2019-01-30T23:20:09.818Z,94.47
2019-01-30T23:23:16.856Z,94.78
2019-01-30T23:26:25.190Z,95.01
2019-01-30T23:29:32.230Z,94.35
2019-01-30T23:32:39.252Z,94.02
2019-01-30T23:35:46.286Z,95.44
2019-01-30T23:38:53.298Z,95.17
2019-01-30T23:42:00.334Z,95.65
2019-01-30T23:45:07.343Z,95.21
2019-01-30T23:48:14.378Z,94.62
2019-01-30T23:51:22.726Z,94.35
2019-01-30T23:54:31.121Z,95.02
2019-01-30T23:57:39.464Z,95.69
